Time;durP1;ratioP1;P1;durP2;ratioP2;P2;SDS_P1;SDS_P2;PMS_P1;PMS_P2;Temp;Humidity;BMP_temperature;BMP_pressure;BME280_temperature;BME280_humidity;BME280_pressure;Samples;Min_cycle;Max_cycle;Signal;HPM_P1;HPM_P2
2020/12/01 00:01:38;;;;;;;25.48;15.95;;;6.70;94.00;;;;;;3432944;34;20132;-85
2020/12/01 00:04:09;;;;;;;25.10;17.45;;;6.70;93.90;;;;;;3447604;33;20131;-87
2020/12/01 00:06:47;;;;;;;27.50;18.40;;;6.70;93.90;;;;;;3454925;33;20130;-86
2020/12/01 00:09:14;;;;;;;25.38;18.73;;;6.70;94.00;;;;;;3553216;33;20179;-86
2020/12/01 00:11:59;;;;;;;27.60;18.85;;;6.70;94.10;;;;;;3486252;33;20111;-85
2020/12/01 00:14:35;;;;;;;;;;;;;;;;;;;;;
2020/12/01 00:17:07;;;;;;;25.27;17.70;;;6.80;94.10;;;;;;3474865;41;20111;-85
2020/12/01 00:19:35;;;;;;;22.98;16.40;;;6.80;94.10;;;;;;3474891;41;20583;-86
2020/12/01 00:22:08;;;;;;;21.30;16.02;;;6.80;94.10;;;;;;3474562;41;20106;-85
2020/12/01 00:24:56;;;;;;;23.92;17.00;;;6.80;94.10;;;;;;3492674;41;20102;-85
2020/12/01 00:27:45;;;;;;;22.77;16.92;;;6.80;94.10;;;;;;3484352;41;20111;-86
2020/12/01 00:30:25;;;;;;;23.00;16.63;;;6.80;94.10;;;;;;3479655;41;20282;-85
2020/12/01 00:33:31;;;;;;;24.58;16.85;;;6.80;94.10;;;;;;3482645;41;20202;-84
2020/12/01 00:35:57;;;;;;;24.92;17.77;;;6.80;94.10;;;;;;3465537;33;20131;-85
2020/12/01 00:38:26;;;;;;;25.02;17.23;;;6.80;94.10;;;;;;3466503;41;20130;-84
2020/12/01 00:41:12;;;;;;;22.23;17.13;;;6.80;94.10;;;;;;3474767;33;20127;-86
2020/12/01 00:43:42;;;;;;;24.85;17.27;;;6.80;94.10;;;;;;3474685;41;20131;-86
2020/12/01 00:46:15;;;;;;;23.50;16.92;;;6.80;94.10;;;;;;3481972;33;20198;-86
2020/12/01 00:49:01;;;;;;;23.13;16.77;;;6.80;94.00;;;;;;3474491;33;20107;-86
2020/12/01 00:51:32;;;;;;;24.23;16.45;;;6.80;94.10;;;;;;3469634;33;20117;-83
2020/12/01 00:54:00;;;;;;;23.20;16.38;;;6.80;94.10;;;;;;3478782;33;20119;-85
2020/12/01 00:56:28;;;;;;;23.73;16.88;;;6.80;94.00;;;;;;3491991;33;20198;-84
2020/12/01 00:59:06;;;;;;;21.80;16.02;;;6.80;94.30;;;;;;3484333;33;20161;-84
2020/12/01 01:01:31;;;;;;;21.73;16.75;;;6.80;94.00;;;;;;3475014;41;20123;-85
2020/12/01 01:04:02;;;;;;;21.88;16.27;;;6.80;94.00;;;;;;3465168;41;20125;-86
2020/12/01 01:06:39;;;;;;;19.98;15.50;;;6.80;94.00;;;;;;3470409;33;20126;-85
2020/12/01 01:09:15;;;;;;;22.48;16.63;;;6.80;94.00;;;;;;3484708;33;20130;-85
2020/12/01 01:11:46;;;;;;;23.33;16.77;;;6.80;94.00;;;;;;3480415;33;20128;-84
2020/12/01 01:14:14;;;;;;;25.63;17.20;;;6.80;94.00;;;;;;3490937;41;20102;-85
2020/12/01 01:16:44;;;;;;;22.13;16.05;;;6.90;94.00;;;;;;3503528;41;20141;-85
2020/12/01 01:19:19;;;;;;;20.60;14.98;;;6.90;94.10;;;;;;3493793;33;20158;-85
2020/12/01 01:22:24;;;;;;;19.08;14.38;;;7.00;94.00;;;;;;3493171;41;20212;-84
2020/12/01 01:24:51;;;;;;;19.35;13.38;;;7.00;94.10;;;;;;3493780;33;20161;-84
2020/12/01 01:27:16;;;;;;;21.23;11.80;;;7.00;94.10;;;;;;3492756;41;20205;-87
2020/12/01 01:29:45;;;;;;;16.60;11.52;;;7.10;94.10;;;;;;3481312;41;20150;-85
2020/12/01 01:32:16;;;;;;;15.20;10.60;;;7.10;94.10;;;;;;3483267;41;20500;-85
2020/12/01 01:34:49;;;;;;;18.73;11.00;;;7.10;94.10;;;;;;3487019;33;20188;-85
2020/12/01 01:37:25;;;;;;;17.20;9.20;;;7.10;94.20;;;;;;3475346;41;20110;-85
2020/12/01 01:40:14;;;;;;;15.25;9.60;;;7.20;94.20;;;;;;3483257;41;20221;-86
2020/12/01 01:42:42;;;;;;;16.55;9.52;;;7.20;94.20;;;;;;3464506;33;20309;-85
2020/12/01 01:45:10;;;;;;;14.50;8.25;;;7.20;94.20;;;;;;3472036;41;20608;-85
2020/12/01 01:47:37;;;;;;;11.88;7.55;;;7.20;94.20;;;;;;3464486;41;20155;-85
2020/12/01 01:53:27;;;;;;;17.02;7.43;;;7.30;94.20;;;;;;3473865;41;20109;-85
2020/12/01 01:56:00;;;;;;;12.43;6.65;;;7.30;94.20;;;;;;3473999;33;20123;-86
2020/12/01 01:58:41;;;;;;;14.43;6.88;;;7.30;94.20;;;;;;3464628;41;20167;-86
2020/12/01 02:01:14;;;;;;;14.32;5.90;;;7.30;94.20;;;;;;3464759;33;20142;-85
2020/12/01 02:03:47;;;;;;;13.73;6.50;;;7.30;94.20;;;;;;3466374;41;20155;-85
2020/12/01 02:06:40;;;;;;;15.48;5.90;;;7.30;94.20;;;;;;3442827;33;20601;-86
2020/12/01 02:09:18;;;;;;;11.95;4.32;;;7.30;94.20;;;;;;3442224;41;20127;-85
2020/12/01 02:12:08;;;;;;;12.65;4.22;;;7.20;94.20;;;;;;3454952;41;20176;-86
2020/12/01 02:14:55;;;;;;;11.38;4.22;;;7.20;94.10;;;;;;3454969;41;20123;-85
2020/12/01 02:17:27;;;;;;;8.57;3.88;;;7.20;94.10;;;;;;3464421;41;20166;-85
2020/12/01 02:19:56;;;;;;;12.57;3.53;;;7.20;94.10;;;;;;3456600;33;20138;-85
2020/12/01 02:22:26;;;;;;;14.07;4.32;;;7.10;94.10;;;;;;3441998;41;20317;-84
2020/12/01 02:24:52;;;;;;;9.38;3.60;;;7.10;94.10;;;;;;3445433;41;20107;-83
2020/12/01 02:27:24;;;;;;;10.13;3.10;;;7.00;94.10;;;;;;3449082;41;20118;-86
2020/12/01 02:29:56;;;;;;;11.93;3.22;;;7.10;94.10;;;;;;3447304;33;20206;-85
2020/12/01 02:32:41;;;;;;;13.52;3.70;;;7.00;94.00;;;;;;3460446;33;20145;-85
2020/12/01 02:35:12;;;;;;;9.52;3.00;;;7.00;94.00;;;;;;3446937;33;20134;-86
2020/12/01 02:37:42;;;;;;;9.70;3.25;;;7.00;94.00;;;;;;3460842;33;20167;-86
2020/12/01 02:40:22;;;;;;;8.68;2.97;;;6.90;94.00;;;;;;3463913;41;20115;-84
2020/12/01 02:42:56;;;;;;;10.27;3.22;;;6.80;94.00;;;;;;3450091;41;20119;-84
2020/12/01 02:45:26;;;;;;;9.30;2.78;;;6.80;94.00;;;;;;3468010;33;20203;-84
2020/12/01 02:47:52;;;;;;;13.93;3.53;;;6.80;94.00;;;;;;3492709;40;20121;-85
2020/12/01 02:50:18;;;;;;;12.13;2.47;;;6.80;93.90;;;;;;3493062;41;20229;-85
2020/12/01 02:53:15;;;;;;;;;;;;;;;;;;;;;
2020/12/01 02:55:41;;;;;;;6.82;2.10;;;6.80;93.90;;;;;;3492561;41;20102;-86
2020/12/01 02:58:06;;;;;;;11.27;2.50;;;6.70;93.90;;;;;;3482668;41;20172;-85
2020/12/01 03:00:53;;;;;;;6.25;2.58;;;6.70;93.90;;;;;;3472855;41;22274;-85
2020/12/01 03:03:18;;;;;;;8.48;2.30;;;6.60;93.80;;;;;;3474696;33;20576;-85
2020/12/01 03:05:44;;;;;;;9.48;1.90;;;6.60;93.80;;;;;;3482418;41;20114;-85
2020/12/01 03:08:17;;;;;;;9.90;2.63;;;6.60;93.80;;;;;;3467264;41;20130;-85
2020/12/01 03:10:50;;;;;;;8.45;2.08;;;6.60;93.80;;;;;;3482987;33;20118;-85
2020/12/01 03:13:18;;;;;;;5.80;2.13;;;6.50;93.70;;;;;;3475553;41;20130;-84
2020/12/01 03:16:06;;;;;;;;;;;;;;;;;;;;;
2020/12/01 03:19:09;;;;;;;7.03;2.50;;;6.40;93.70;;;;;;3502297;41;20122;-84
2020/12/01 03:21:35;;;;;;;9.57;2.28;;;6.40;93.70;;;;;;3502305;33;20118;-84
2020/12/01 03:24:01;;;;;;;10.15;2.05;;;6.40;93.70;;;;;;3491858;41;20117;-84
2020/12/01 03:26:27;;;;;;;11.45;2.00;;;6.30;93.60;;;;;;3492342;33;20194;-85
2020/12/01 03:28:55;;;;;;;7.30;2.15;;;6.40;93.60;;;;;;3492828;41;20555;-83
2020/12/01 03:31:26;;;;;;;6.88;1.80;;;6.30;93.60;;;;;;3503380;33;20133;-85
2020/12/01 03:33:54;;;;;;;4.37;1.57;;;6.30;93.60;;;;;;3506033;40;20113;-85
2020/12/01 03:36:53;;;;;;;8.23;1.80;;;6.30;93.60;;;;;;3492589;33;20142;-84
2020/12/01 03:39:26;;;;;;;10.60;2.88;;;6.30;93.60;;;;;;3502381;33;20182;-84
2020/12/01 03:41:52;;;;;;;7.85;2.10;;;6.20;93.60;;;;;;3502921;41;20157;-85
2020/12/01 03:44:17;;;;;;;7.32;1.45;;;6.20;93.60;;;;;;3501766;41;20114;-85
2020/12/01 03:46:48;;;;;;;6.30;1.80;;;6.20;93.50;;;;;;3510308;40;20176;-86
2020/12/01 03:52:37;;;;;;;6.32;1.92;;;6.10;93.50;;;;;;3504222;41;20652;-84
2020/12/01 03:58:24;;;;;;;8.60;1.95;;;6.00;93.50;;;;;;3557316;33;20391;-86
2020/12/01 04:01:11;;;;;;;7.40;2.10;;;6.10;93.50;;;;;;3497499;40;20594;-86
2020/12/01 04:03:42;;;;;;;9.75;2.10;;;6.10;93.60;;;;;;3513580;40;20577;-85
2020/12/01 04:06:08;;;;;;;12.60;2.55;;;6.10;93.60;;;;;;3494358;33;20121;-83
2020/12/01 04:09:01;;;;;;;6.43;1.80;;;6.10;93.60;;;;;;3494472;41;20114;-84
2020/12/01 04:11:32;;;;;;;8.15;1.85;;;6.10;93.60;;;;;;3504241;33;20130;-84
2020/12/01 04:14:25;;;;;;;;;;;;;;;;;;;;;
2020/12/01 04:16:55;;;;;;;6.85;1.70;;;6.20;93.60;;;;;;3493800;41;20277;-84
2020/12/01 04:19:23;;;;;;;7.25;1.70;;;6.10;93.60;;;;;;3485869;41;20591;-85
2020/12/01 04:21:51;;;;;;;8.30;2.53;;;6.20;93.60;;;;;;3484412;33;20110;-85
2020/12/01 04:24:20;;;;;;;8.65;1.90;;;6.20;93.70;;;;;;3474427;41;20122;-84
2020/12/01 04:27:06;;;;;;;9.30;1.83;;;6.20;93.70;;;;;;3466494;41;20118;-86
2020/12/01 04:29:54;;;;;;;10.43;2.60;;;6.20;93.70;;;;;;3474867;33;20119;-84
2020/12/01 04:32:23;;;;;;;9.77;2.38;;;6.20;93.70;;;;;;3464774;41;20555;-85
2020/12/01 04:34:52;;;;;;;10.35;2.13;;;6.30;93.70;;;;;;3465147;33;20123;-85
2020/12/01 04:40:54;;;;;;;;;;;;;;;;;;;;;
2020/12/01 04:44:02;;;;;;;10.18;1.70;;;6.30;93.70;;;;;;3459065;41;20278;-85
2020/12/01 04:46:34;;;;;;;10.40;1.90;;;6.30;93.70;;;;;;3493535;41;20585;-85
2020/12/01 04:49:07;;;;;;;12.57;2.40;;;6.30;93.70;;;;;;3484039;41;20627;-86
2020/12/01 04:51:45;;;;;;;7.95;1.75;;;6.30;93.70;;;;;;3475059;33;20119;-84
2020/12/01 04:54:43;;;;;;;8.80;2.72;;;6.40;93.80;;;;;;3485000;41;20138;-84
2020/12/01 04:57:48;;;;;;;7.28;1.67;;;6.40;93.80;;;;;;3480509;33;20122;-85
2020/12/01 05:00:51;;;;;;;7.25;1.85;;;6.40;93.80;;;;;;3490706;40;20165;-86
2020/12/01 05:03:40;;;;;;;12.32;2.40;;;6.40;93.70;;;;;;3554052;33;21801;-85
2020/12/01 05:09:12;;;;;;;10.68;2.20;;;6.40;93.70;;;;;;3536427;33;20114;-85
2020/12/01 05:12:01;;;;;;;10.10;2.08;;;6.40;93.70;;;;;;3459543;33;20231;-87
2020/12/01 05:15:17;;;;;;;9.27;1.90;;;6.40;93.80;;;;;;3456991;41;20127;-85
2020/12/01 05:18:04;;;;;;;8.95;1.73;;;6.40;93.70;;;;;;3423541;41;20165;-84
2020/12/01 05:23:55;;;;;;;9.57;2.13;;;6.50;93.80;;;;;;3444671;41;20134;-87
2020/12/01 05:27:05;;;;;;;8.70;2.05;;;6.50;93.80;;;;;;3446669;33;20140;-86
2020/12/01 05:29:39;;;;;;;8.80;1.90;;;6.50;93.80;;;;;;3410659;42;20654;-86
2020/12/01 05:32:12;;;;;;;9.15;2.95;;;6.50;93.80;;;;;;3418322;42;20483;-87
2020/12/01 05:35:23;;;;;;;10.85;3.60;;;6.50;93.70;;;;;;3428902;41;20120;-86
2020/12/01 05:41:22;;;;;;;7.93;2.65;;;6.50;93.80;;;;;;3448945;41;20204;-86
2020/12/01 05:43:59;;;;;;;11.48;2.13;;;6.60;93.80;;;;;;3448117;33;20131;-86
2020/12/01 05:46:50;;;;;;;8.68;2.10;;;6.60;93.80;;;;;;3456010;33;20134;-86
2020/12/01 05:49:45;;;;;;;8.25;2.22;;;6.60;93.80;;;;;;3476953;41;20126;-87
2020/12/01 05:52:51;;;;;;;6.85;1.73;;;6.60;93.80;;;;;;3465413;33;20450;-86
2020/12/01 05:55:39;;;;;;;6.78;1.88;;;6.60;93.80;;;;;;3456391;41;20152;-86
2020/12/01 05:58:51;;;;;;;;;;;;;;;;;;;;;
2020/12/01 06:01:48;;;;;;;8.10;1.98;;;6.60;93.80;;;;;;3455488;41;20111;-85
2020/12/01 06:04:49;;;;;;;6.45;2.33;;;6.60;93.80;;;;;;3435037;41;20616;-86
2020/12/01 06:13:52;;;;;;;4.13;1.45;;;6.60;93.80;;;;;;3426954;41;20136;-84
2020/12/01 06:16:55;;;;;;;13.18;4.35;;;6.60;93.80;;;;;;3455039;33;20117;-84
2020/12/01 06:19:46;;;;;;;12.88;4.60;;;6.70;93.80;;;;;;3464561;41;20147;-85
2020/12/01 06:22:33;;;;;;;;;;;6.70;93.80;;;;;;3463073;33;20245;-84
2020/12/01 06:25:46;;;;;;;6.00;2.60;;;6.70;93.80;;;;;;3464715;33;20116;-85
2020/12/01 06:29:09;;;;;;;9.85;2.95;;;6.70;93.80;;;;;;3437562;41;20170;-86
2020/12/01 06:32:20;;;;;;;8.70;2.95;;;6.70;93.80;;;;;;3445185;41;20123;-85
2020/12/01 06:35:34;;;;;;;6.40;2.53;;;6.70;93.80;;;;;;3415383;42;20129;-85
2020/12/01 06:38:15;;;;;;;8.90;3.47;;;6.70;93.80;;;;;;3420785;41;20136;-84
2020/12/01 06:41:08;;;;;;;;;;;;;;;;;;;;;
2020/12/01 06:43:47;;;;;;;7.45;3.58;;;6.80;93.90;;;;;;3414937;42;20109;-86
2020/12/01 06:46:39;;;;;;;9.32;3.83;;;6.80;93.90;;;;;;3408495;42;20121;-86
2020/12/01 06:49:14;;;;;;;;;;;6.80;93.90;;;;;;3435304;41;20285;-85
2020/12/01 06:51:52;;;;;;;7.25;4.00;;;6.80;93.90;;;;;;3427332;41;20023;-85
2020/12/01 06:54:33;;;;;;;9.52;4.50;;;6.80;93.90;;;;;;3445253;34;20131;-85
2020/12/01 06:57:28;;;;;;;6.43;4.07;;;6.80;93.90;;;;;;3461594;41;20126;-85
2020/12/01 07:00:04;;;;;;;7.03;4.55;;;6.90;94.00;;;;;;3492522;33;20195;-84
2020/12/01 07:02:46;;;;;;;6.38;4.45;;;6.90;94.00;;;;;;3482661;33;20138;-82
2020/12/01 07:05:30;;;;;;;;;;;6.90;94.00;;;;;;3477931;33;20121;-86
2020/12/01 07:08:25;;;;;;;7.68;4.57;;;6.90;94.00;;;;;;3473871;41;20516;-85
2020/12/01 07:11:27;;;;;;;7.18;4.82;;;6.90;94.00;;;;;;3479693;41;20214;-84
2020/12/01 07:14:21;;;;;;;8.73;4.63;;;6.90;94.00;;;;;;3473681;33;20110;-86
2020/12/01 07:17:00;;;;;;;8.35;5.45;;;6.90;94.00;;;;;;3473906;41;20122;-84
2020/12/01 07:19:34;;;;;;;9.98;5.60;;;7.00;94.00;;;;;;3454329;41;20229;-85
2020/12/01 07:22:36;;;;;;;7.60;5.05;;;7.00;94.00;;;;;;3454680;41;20175;-87
2020/12/01 07:25:32;;;;;;;;;;;;;;;;;;;;;
2020/12/01 07:29:03;;;;;;;;;;;;;;;;;;;;;
2020/12/01 07:31:41;;;;;;;12.07;5.30;;;7.00;94.10;;;;;;3449367;34;20100;-86
2020/12/01 07:34:29;;;;;;;7.60;5.20;;;7.00;94.10;;;;;;3449129;33;20120;-85
2020/12/01 07:37:21;;;;;;;14.48;7.95;;;7.00;94.10;;;;;;3429535;34;20693;-85
2020/12/01 07:40:09;;;;;;;;;;;;;;;;;;;;;
2020/12/01 07:42:38;;;;;;;10.35;6.60;;;7.10;94.10;;;;;;3435695;41;20509;-86
2020/12/01 07:45:18;;;;;;;10.30;5.97;;;7.10;94.10;;;;;;3443218;41;20123;-85
2020/12/01 07:48:04;;;;;;;6.43;4.28;;;7.10;94.10;;;;;;3426376;41;20135;-84
2020/12/01 07:51:00;;;;;;;;;;;;;;;;;;;;;
2020/12/01 07:53:33;;;;;;;6.20;3.70;;;7.30;94.30;;;;;;3526012;33;20112;-85
2020/12/01 07:56:07;;;;;;;7.05;3.15;;;7.40;94.50;;;;;;3463942;41;20176;-84
2020/12/01 07:58:49;;;;;;;5.53;3.00;;;7.50;94.60;;;;;;3463937;33;20641;-85
2020/12/01 08:01:21;;;;;;;5.07;2.10;;;7.50;94.70;;;;;;3456644;33;20119;-85
2020/12/01 08:03:53;;;;;;;4.43;2.30;;;7.70;94.80;;;;;;3473382;41;20122;-85
2020/12/01 08:06:24;;;;;;;2.55;1.50;;;7.70;94.90;;;;;;3436945;41;20132;-85
2020/12/01 08:09:01;;;;;;;5.47;1.60;;;7.80;94.90;;;;;;3444569;41;20589;-85
2020/12/01 08:11:31;;;;;;;6.30;1.80;;;7.80;94.90;;;;;;3450521;33;20119;-86
2020/12/01 08:14:19;;;;;;;5.28;1.50;;;7.80;95.00;;;;;;3441230;41;20167;-85
2020/12/01 08:17:07;;;;;;;10.32;2.35;;;7.90;95.00;;;;;;3444803;41;20139;-85
2020/12/01 08:19:43;;;;;;;;;;;;;;;;;;;;;
2020/12/01 08:22:20;;;;;;;14.00;2.70;;;8.00;95.10;;;;;;3435193;41;20111;-84
2020/12/01 08:24:47;;;;;;;9.77;2.10;;;8.00;95.00;;;;;;3444792;33;20123;-86
2020/12/01 08:27:58;;;;;;;16.30;3.25;;;8.10;95.00;;;;;;3454155;41;20251;-85
2020/12/01 08:30:54;;;;;;;20.75;3.92;;;8.10;95.00;;;;;;3409760;34;20257;-85
2020/12/01 08:33:56;;;;;;;17.42;4.13;;;8.20;95.00;;;;;;3407396;42;20113;-85
2020/12/01 08:36:41;;;;;;;20.75;4.07;;;8.20;95.00;;;;;;3407291;42;20138;-85
2020/12/01 08:39:51;;;;;;;19.58;4.90;;;8.20;95.00;;;;;;3400356;42;20499;-85
2020/12/01 08:42:53;;;;;;;21.75;4.07;;;8.20;94.90;;;;;;3442492;41;20111;-86
2020/12/01 08:46:11;;;;;;;;;;;;;;;;;;;;;
2020/12/01 08:48:57;;;;;;;;;;;;;;;;;;;;;
2020/12/01 08:51:33;;;;;;;30.88;5.85;;;8.20;94.80;;;;;;3455479;34;20128;-86
2020/12/01 08:54:19;;;;;;;23.30;4.95;;;8.20;94.90;;;;;;3409550;42;20145;-85
2020/12/01 08:57:03;;;;;;;;;;;;;;;;;;;;;
2020/12/01 09:02:44;;;;;;;23.50;5.65;;;8.20;94.70;;;;;;3427647;41;20160;-86
2020/12/01 09:08:42;;;;;;;27.52;4.80;;;8.20;94.70;;;;;;3418970;34;20496;-85
2020/12/01 09:17:11;;;;;;;;;;;;;;;;;;;;;
2020/12/01 09:23:28;;;;;;;;;;;;;;;;;;;;;
2020/12/01 09:25:57;;;;;;;31.38;5.30;;;8.30;94.50;;;;;;3455386;41;20130;-84
2020/12/01 09:28:30;;;;;;;23.88;4.72;;;8.30;94.50;;;;;;3464963;33;20173;-86
2020/12/01 09:31:05;;;;;;;26.75;5.57;;;8.30;94.50;;;;;;3427818;41;20104;-85
2020/12/01 09:33:32;;;;;;;33.13;5.47;;;8.30;94.50;;;;;;3428760;41;20116;-86
2020/12/01 09:36:00;;;;;;;24.88;5.15;;;8.30;94.40;;;;;;3436745;34;20269;-84
2020/12/01 09:38:31;;;;;;;23.15;5.10;;;8.30;94.40;;;;;;3436678;34;20111;-85
2020/12/01 09:40:59;;;;;;;25.90;4.95;;;8.30;94.40;;;;;;3482870;41;20122;-85
2020/12/01 09:43:37;;;;;;;22.98;5.10;;;8.30;94.40;;;;;;3464519;33;20119;-85
2020/12/01 09:46:08;;;;;;;28.50;6.60;;;8.30;94.40;;;;;;3464610;41;20121;-86
2020/12/01 09:48:39;;;;;;;24.25;4.40;;;8.40;94.40;;;;;;3454946;33;20112;-85
2020/12/01 09:51:07;;;;;;;26.35;5.05;;;8.40;94.30;;;;;;3455015;33;20616;-86
2020/12/01 10:17:13;;;;;;;28.63;6.00;;;8.50;93.90;;;;;;3516017;33;20274;-84
2020/12/01 10:21:10;;;;;;;24.42;5.00;;;8.60;93.80;;;;;;3467101;33;20169;-86
2020/12/01 10:37:33;;;;;;;29.75;4.57;;;8.60;93.60;;;;;;3509508;33;20619;-85
2020/12/01 10:44:23;;;;;;;27.52;5.03;;;8.60;93.40;;;;;;3492462;33;20120;-85
2020/12/01 10:47:22;;;;;;;;;;;;;;;;;;;;;
2020/12/01 10:50:04;;;;;;;25.48;4.78;;;8.60;93.30;;;;;;3482469;41;20127;-84
2020/12/01 10:52:51;;;;;;;;;;;;;;;;;;;;;
2020/12/01 10:58:14;;;;;;;27.83;4.15;;;8.70;93.20;;;;;;3454733;33;20118;-83
2020/12/01 11:01:35;;;;;;;;;;;;;;;;;;;;;
2020/12/01 11:04:17;;;;;;;24.80;4.72;;;8.70;93.10;;;;;;3471207;33;20151;-84
2020/12/01 11:06:59;;;;;;;;;;;;;;;;;;;;;
2020/12/01 11:10:08;;;;;;;19.63;4.90;;;8.70;92.80;;;;;;3456559;33;20112;-85
2020/12/01 11:12:54;;;;;;;32.42;5.38;;;8.80;92.80;;;;;;3439232;34;20135;-85
2020/12/01 11:16:05;;;;;;;24.95;5.18;;;8.70;92.60;;;;;;3424559;41;20125;-84
2020/12/01 11:18:31;;;;;;;25.63;4.85;;;8.80;92.60;;;;;;3424281;34;20195;-84
2020/12/01 11:21:10;;;;;;;23.67;3.97;;;8.80;92.40;;;;;;3426338;41;20140;-85
2020/12/01 11:23:41;;;;;;;26.65;5.18;;;8.80;92.20;;;;;;3430626;41;20684;-84
2020/12/01 11:26:44;;;;;;;27.85;4.72;;;8.90;92.20;;;;;;3435177;34;20120;-85
2020/12/01 11:29:40;;;;;;;;;;;;;;;;;;;;;
2020/12/01 11:32:46;;;;;;;21.27;4.20;;;8.90;92.10;;;;;;3508143;34;20112;-84
2020/12/01 11:38:46;;;;;;;27.95;4.70;;;8.90;91.90;;;;;;3436570;33;20137;-84
2020/12/01 11:41:40;;;;;;;;;;;;;;;;;;;;;
2020/12/01 11:44:48;;;;;;;23.40;4.63;;;8.90;91.60;;;;;;3466982;41;20123;-84
2020/12/01 11:47:24;;;;;;;22.83;4.60;;;9.00;91.60;;;;;;3482074;41;20113;-84
2020/12/01 11:49:55;;;;;;;19.70;4.30;;;9.00;91.60;;;;;;3482128;41;20158;-84
2020/12/01 11:52:39;;;;;;;;;;;;;;;;;;;;;
2020/12/01 11:58:42;;;;;;;;;;;;;;;;;;;;;
2020/12/01 12:01:17;;;;;;;27.55;5.00;;;9.00;91.30;;;;;;3444658;41;20632;-84
2020/12/01 12:03:52;;;;;;;23.33;4.03;;;9.00;91.10;;;;;;3444576;41;20116;-85
2020/12/01 12:06:40;;;;;;;17.80;3.97;;;9.10;91.20;;;;;;3432609;34;20121;-84
2020/12/01 12:09:26;;;;;;;21.30;4.50;;;9.10;91.20;;;;;;3435397;41;20127;-85
2020/12/01 12:15:36;;;;;;;24.65;5.93;;;9.10;91.30;;;;;;3409914;34;20316;-84
2020/12/01 12:18:05;;;;;;;20.45;4.35;;;9.10;91.20;;;;;;3403678;34;20117;-82
2020/12/01 12:21:01;;;;;;;23.95;4.63;;;9.10;91.00;;;;;;3403915;42;20121;-83
2020/12/01 12:23:36;;;;;;;;;;;;;;;;;;;;;
2020/12/01 12:26:30;;;;;;;22.00;4.75;;;9.10;91.00;;;;;;3410229;34;20128;-82
2020/12/01 12:29:18;;;;;;;17.63;4.72;;;9.10;90.80;;;;;;3409558;34;20587;-83
2020/12/01 12:31:49;;;;;;;21.85;4.05;;;9.10;90.60;;;;;;3418327;42;20133;-83
2020/12/01 12:34:39;;;;;;;18.70;4.57;;;9.10;90.60;;;;;;3409258;42;20577;-84
2020/12/01 12:37:12;;;;;;;22.95;4.10;;;9.20;90.50;;;;;;3433158;41;20684;-83
2020/12/01 12:39:54;;;;;;;;;;;;;;;;;;;;;
2020/12/01 12:43:09;;;;;;;;;;;;;;;;;;;;;
2020/12/01 12:45:46;;;;;;;21.30;4.60;;;9.20;90.20;;;;;;3483542;33;20159;-83
2020/12/01 12:48:16;;;;;;;23.67;4.28;;;9.20;90.20;;;;;;3455173;41;20127;-84
2020/12/01 12:50:55;;;;;;;23.95;4.78;;;9.20;90.30;;;;;;3464687;41;20134;-83
2020/12/01 12:53:52;;;;;;;21.65;4.53;;;9.20;90.20;;;;;;3446120;33;20147;-84
2020/12/01 12:56:23;;;;;;;15.93;3.58;;;9.20;90.10;;;;;;3455136;41;20285;-82
2020/12/01 12:59:05;;;;;;;;;;;9.20;90.10;;;;;;3455704;41;20187;-82
2020/12/01 13:01:35;;;;;;;;;;;9.30;90.00;;;;;;3461762;33;20019;-83
2020/12/01 13:04:21;;;;;;;;;;;;;;;;;;;;;
2020/12/01 13:07:06;;;;;;;25.33;4.47;;;9.30;89.80;;;;;;3455331;33;20131;-83
2020/12/01 13:10:02;;;;;;;20.25;4.03;;;9.30;89.80;;;;;;3455514;41;20127;-83
2020/12/01 13:13:02;;;;;;;16.50;3.60;;;9.30;89.60;;;;;;3455013;41;20131;-83
2020/12/01 13:15:45;;;;;;;19.80;4.40;;;9.30;89.50;;;;;;3469849;33;20143;-83
2020/12/01 13:18:56;;;;;;;23.95;4.18;;;9.40;88.90;;;;;;3449839;33;20528;-82
2020/12/01 13:21:25;;;;;;;17.83;3.90;;;9.40;88.10;;;;;;3429364;41;21176;-82
2020/12/01 13:29:45;;;;;;;16.75;4.35;;;9.40;87.90;;;;;;3399620;42;20141;-82
2020/12/01 13:32:25;;;;;;;;;;;;;;;;;;;;;
2020/12/01 13:35:00;;;;;;;18.90;4.07;;;9.40;87.20;;;;;;3423210;34;20132;-83
2020/12/01 13:43:40;;;;;;;16.92;4.43;;;9.40;87.40;;;;;;3393088;34;20009;-82
2020/12/01 13:46:42;;;;;;;;;;;;;;;;;;;;;
2020/12/01 13:49:31;;;;;;;;;;;9.50;87.60;;;;;;3386594;42;20164;-83
2020/12/01 13:52:40;;;;;;;;;;;;;;;;;;;;;
2020/12/01 13:55:20;;;;;;;20.73;4.13;;;9.50;87.70;;;;;;3416714;34;20117;-81
2020/12/01 13:58:03;;;;;;;;;;;;;;;;;;;;;
2020/12/01 14:01:05;;;;;;;;;;;;;;;;;;;;;
2020/12/01 14:04:28;;;;;;;;;;;;;;;;;;;;;
2020/12/01 14:07:02;;;;;;;;;;;;;;;;;;;;;
2020/12/01 14:10:18;;;;;;;17.27;2.92;;;9.60;87.00;;;;;;3445412;34;20163;-83
2020/12/01 14:13:36;;;;;;;14.55;3.00;;;9.50;87.10;;;;;;3425100;34;20116;-83
2020/12/01 14:19:03;;;;;;;9.90;2.78;;;9.50;87.60;;;;;;3417909;34;20133;-83
2020/12/01 14:22:18;;;;;;;8.95;2.03;;;9.40;88.00;;;;;;3408389;42;20201;-83
2020/12/01 14:25:04;;;;;;;8.93;2.53;;;9.40;88.40;;;;;;3413611;34;20153;-83
2020/12/01 14:31:43;;;;;;;;;;;;;;;;;;;;;
2020/12/01 14:34:19;;;;;;;5.72;1.48;;;9.30;88.80;;;;;;3426615;41;20656;-83
2020/12/01 14:37:35;;;;;;;8.07;1.58;;;9.30;89.00;;;;;;3436795;41;20135;-84
2020/12/01 14:40:57;;;;;;;;;;;;;;;;;;;;;
2020/12/01 14:43:51;;;;;;;5.25;1.40;;;9.20;89.10;;;;;;3478524;34;20122;-82
2020/12/01 14:46:29;;;;;;;6.22;1.70;;;9.20;89.00;;;;;;3446632;41;20123;-84
2020/12/01 14:50:01;;;;;;;;;;;;;;;;;;;;;
2020/12/01 14:53:19;;;;;;;;;;;;;;;;;;;;;
2020/12/01 14:56:30;;;;;;;7.53;1.70;;;9.10;89.20;;;;;;3445192;41;20104;-83
2020/12/01 14:59:30;;;;;;;8.38;1.90;;;9.10;89.40;;;;;;3454614;41;20290;-84
2020/12/01 15:02:36;;;;;;;;;;;;;;;;;;;;;
2020/12/01 15:05:31;;;;;;;9.60;1.77;;;9.10;89.70;;;;;;3445262;33;20115;-83
2020/12/01 15:08:19;;;;;;;8.40;1.70;;;9.10;89.70;;;;;;3440162;33;20143;-83
2020/12/01 15:11:01;;;;;;;8.15;2.05;;;9.10;89.80;;;;;;3435662;41;20198;-83
2020/12/01 15:14:09;;;;;;;;;;;;;;;;;;;;;
2020/12/01 15:17:19;;;;;;;8.82;1.73;;;9.00;89.90;;;;;;3441290;34;20127;-83
2020/12/01 15:19:54;;;;;;;4.50;1.58;;;9.00;89.60;;;;;;3433325;41;20584;-83
2020/12/01 15:25:41;;;;;;;5.53;1.55;;;9.00;89.50;;;;;;3424074;34;20247;-84
2020/12/01 15:28:17;;;;;;;6.68;1.70;;;9.00;89.40;;;;;;3425478;34;20172;-83
2020/12/01 15:31:04;;;;;;;5.00;1.60;;;9.00;89.30;;;;;;3435987;41;20565;-81
2020/12/01 15:33:37;;;;;;;5.43;1.40;;;9.00;89.40;;;;;;3453316;41;20147;-83
2020/12/01 15:36:38;;;;;;;4.53;1.50;;;9.00;89.40;;;;;;3446475;41;20597;-83
2020/12/01 15:42:39;;;;;;;5.25;1.65;;;9.00;89.40;;;;;;3410598;34;20113;-84
2020/12/01 15:45:52;;;;;;;;;;;;;;;;;;;;;
2020/12/01 15:48:32;;;;;;;6.03;1.30;;;9.00;89.60;;;;;;3425904;34;20148;-84
2020/12/01 15:51:04;;;;;;;10.27;2.15;;;8.90;89.70;;;;;;3413479;34;20193;-83
2020/12/01 15:54:04;;;;;;;7.10;1.88;;;8.90;89.70;;;;;;3440299;41;20126;-85
2020/12/01 15:57:22;;;;;;;;;;;;;;;;;;;;;
2020/12/01 16:00:27;;;;;;;6.47;1.70;;;8.90;89.30;;;;;;3501858;34;20159;-84
2020/12/01 16:03:35;;;;;;;;;;;;;;;;;;;;;
2020/12/01 16:06:34;;;;;;;6.05;1.83;;;8.80;89.10;;;;;;3442468;34;20720;-84
2020/12/01 16:09:46;;;;;;;;;;;;;;;;;;;;;
2020/12/01 16:13:17;;;;;;;6.25;2.05;;;8.80;87.40;;;;;;3454177;34;20122;-83
2020/12/01 16:16:11;;;;;;;4.70;2.10;;;8.70;87.30;;;;;;3435304;41;20116;-82
2020/12/01 16:22:04;;;;;;;6.22;2.35;;;8.60;87.20;;;;;;3454275;33;20617;-85
2020/12/01 16:24:38;;;;;;;4.68;2.20;;;8.60;87.20;;;;;;3454369;33;20120;-83
2020/12/01 16:27:48;;;;;;;4.88;2.60;;;8.60;87.30;;;;;;3453940;41;20118;-85
2020/12/01 16:30:32;;;;;;;4.63;2.22;;;8.60;87.50;;;;;;3454150;41;20584;-83
2020/12/01 16:33:01;;;;;;;3.40;2.40;;;8.60;87.60;;;;;;3462326;41;20119;-83
2020/12/01 16:35:28;;;;;;;5.47;2.83;;;8.60;87.70;;;;;;3482163;41;20115;-83
2020/12/01 16:38:32;;;;;;;4.68;3.00;;;8.60;87.70;;;;;;3482941;41;20130;-84
2020/12/01 16:41:19;;;;;;;6.40;3.25;;;8.50;87.50;;;;;;3521832;33;20125;-86
2020/12/01 16:44:03;;;;;;;4.25;2.85;;;8.50;87.40;;;;;;3483559;41;20134;-83
2020/12/01 16:47:06;;;;;;;4.55;3.38;;;8.50;87.60;;;;;;3492676;33;20106;-85
2020/12/01 16:53:16;;;;;;;;;;;8.50;87.80;;;;;;3550299;33;20101;-82
2020/12/01 16:55:54;;;;;;;4.40;3.60;;;8.50;87.80;;;;;;3510398;40;20014;-84
2020/12/01 16:58:51;;;;;;;5.00;3.60;;;8.50;88.00;;;;;;3504855;41;20129;-83
2020/12/01 17:01:48;;;;;;;5.32;3.60;;;8.40;88.30;;;;;;3514412;33;20577;-84
2020/12/01 17:04:36;;;;;;;5.05;3.90;;;8.40;88.40;;;;;;3504753;33;20683;-82
2020/12/01 17:07:40;;;;;;;;;;;;;;;;;;;;;
2020/12/01 17:10:25;;;;;;;5.55;3.80;;;8.40;88.80;;;;;;3512442;40;20132;-83
2020/12/01 17:16:43;;;;;;;6.40;3.40;;;8.40;89.00;;;;;;3512506;40;20121;-85
2020/12/01 17:19:11;;;;;;;6.78;3.95;;;8.40;89.10;;;;;;3512637;40;20477;-86
2020/12/01 17:22:02;;;;;;;5.72;4.63;;;8.40;89.30;;;;;;3504480;33;20782;-86
2020/12/01 17:24:28;;;;;;;3.92;3.33;;;8.40;89.40;;;;;;3512224;40;20114;-85
2020/12/01 17:27:14;;;;;;;6.50;4.13;;;8.40;89.60;;;;;;3504258;40;20591;-85
2020/12/01 17:32:51;;;;;;;7.80;4.60;;;8.40;89.80;;;;;;3508393;33;20158;-85
2020/12/01 17:35:23;;;;;;;7.10;4.82;;;8.40;89.90;;;;;;3504373;33;20125;-84
2020/12/01 17:37:52;;;;;;;6.60;4.60;;;8.40;89.90;;;;;;3504338;40;20578;-84